createdAt,value
2019-04-14T00:16:27.677Z,98196.34
2019-04-14T00:22:31.838Z,98203.15
2019-04-14T00:25:02.464Z,98197.75
2019-04-14T00:31:17.354Z,98193.31
2019-04-14T00:45:06.968Z,98176.40
2019-04-14T00:55:27.084Z,98164.84
2019-04-14T00:57:57.273Z,98178.97
2019-04-14T01:00:27.604Z,98178.50
2019-04-14T01:02:57.960Z,98166.00
2019-04-14T01:05:28.393Z,98168.72
2019-04-14T01:08:00.836Z,98166.53
2019-04-14T01:10:31.922Z,98166.47
2019-04-14T01:13:02.776Z,98162.70
2019-04-14T01:19:24.741Z,98167.46
2019-04-14T01:21:54.651Z,98167.11
2019-04-14T01:28:16.213Z,98170.88
2019-04-14T01:30:46.390Z,98167.05
2019-04-14T01:33:16.858Z,98170.52
2019-04-14T01:35:46.906Z,98178.93
2019-04-14T01:38:16.984Z,98173.23
2019-04-14T01:57:32.910Z,98192.52
2019-04-14T02:00:20.779Z,98190.66
2019-04-14T02:02:51.280Z,98188.87
2019-04-14T02:05:21.390Z,98193.68
2019-04-14T02:07:51.662Z,98188.75
2019-04-14T02:10:21.740Z,98189.45
2019-04-14T02:16:41.861Z,98197.80
2019-04-14T02:25:29.581Z,98188.30
2019-04-14T02:28:00.110Z,98188.75
2019-04-14T02:34:48.050Z,98185.73
2019-04-14T02:51:23.462Z,98176.31
2019-04-14T02:56:41.091Z,98173.59
2019-04-14T03:27:31.251Z,98193.88
2019-04-14T03:58:24.656Z,98179.87
2019-04-14T04:00:55.408Z,98176.51
2019-04-14T04:07:29.976Z,98183.52
2019-04-14T04:10:11.804Z,98197.80
2019-04-14T04:16:43.962Z,98190.84
2019-04-14T04:25:44.444Z,98199.05
2019-04-14T05:18:39.823Z,98227.52
2019-04-14T05:47:39.367Z,98250.47
2019-04-14T05:50:11.561Z,98250.47
2019-04-14T05:52:42.599Z,98259.42
2019-04-14T06:06:39.824Z,98263.37
2019-04-14T06:17:00.510Z,98264.66
2019-04-14T06:19:37.087Z,98269.15
2019-04-14T06:25:51.555Z,98273.84
2019-04-14T07:16:26.798Z,98271.60
2019-04-14T07:18:56.844Z,98276.67
2019-04-14T07:21:26.768Z,98275.36
2019-04-14T07:23:57.304Z,98276.78
2019-04-14T07:26:28.045Z,98276.11
2019-04-14T07:28:57.996Z,98278.88
2019-04-14T07:31:46.882Z,98279.72
2019-04-14T07:34:30.800Z,98271.64
2019-04-14T07:37:19.121Z,98267.24
2019-04-14T07:39:56.194Z,98268.41
2019-04-14T07:42:48.235Z,98271.00
2019-04-14T07:49:32.877Z,98273.09
2019-04-14T07:52:20.382Z,98269.77
2019-04-14T07:54:59.134Z,98265.64
2019-04-14T07:57:38.652Z,98269.00
2019-04-14T08:00:12.583Z,98266.94
2019-04-14T08:06:33.695Z,98274.49
2019-04-14T08:09:05.503Z,98278.48
2019-04-14T08:11:35.522Z,98281.47
2019-04-14T08:14:05.744Z,98281.91
2019-04-14T08:16:36.595Z,98286.14
2019-04-14T08:19:06.576Z,98280.95
2019-04-14T08:25:28.087Z,98282.14
2019-04-14T08:27:58.493Z,98280.12
2019-04-14T08:30:28.565Z,98273.75
2019-04-14T08:32:58.639Z,98276.86
2019-04-14T08:35:28.562Z,98275.70
2019-04-14T08:37:58.611Z,98282.25
2019-04-14T08:40:28.589Z,98277.78
2019-04-14T08:43:23.306Z,98281.02
2019-04-14T08:46:04.449Z,98277.91
2019-04-14T08:49:02.849Z,98278.63
2019-04-14T08:51:47.370Z,98280.30
2019-04-14T08:54:48.563Z,98279.97
2019-04-14T09:01:12.299Z,98291.69
2019-04-14T09:03:54.363Z,98288.98
2019-04-14T09:06:36.608Z,98284.84
2019-04-14T09:09:23.780Z,98281.48
2019-04-14T09:15:45.513Z,98281.66
2019-04-14T09:18:15.469Z,98287.48
2019-04-14T09:27:21.152Z,98285.28
2019-04-14T09:29:52.373Z,98285.39
2019-04-14T09:32:22.995Z,98287.13
2019-04-14T09:34:52.948Z,98285.16
2019-04-14T09:37:22.894Z,98282.72
2019-04-14T09:39:52.938Z,98282.87
2019-04-14T09:42:23.087Z,98282.52
2019-04-14T09:44:53.024Z,98285.14
2019-04-14T09:47:22.938Z,98281.61
2019-04-14T09:49:52.876Z,98279.67
2019-04-14T09:52:22.886Z,98270.95
2019-04-14T09:54:52.812Z,98275.92
2019-04-14T10:18:51.134Z,98271.03
2019-04-14T11:16:22.321Z,98278.31
2019-04-14T11:22:21.799Z,98272.03
2019-04-14T12:09:53.358Z,98281.95
2019-04-14T12:19:55.790Z,98280.51
2019-04-14T12:51:56.160Z,98288.16
2019-04-14T12:54:27.321Z,98288.67
2019-04-14T12:56:57.256Z,98287.30
2019-04-14T12:59:27.776Z,98278.34
2019-04-14T13:02:03.967Z,98282.83
2019-04-14T13:04:33.973Z,98277.95
2019-04-14T13:07:04.020Z,98293.19
2019-04-14T13:09:33.989Z,98288.75
2019-04-14T13:12:04.294Z,98287.64
2019-04-14T13:14:34.265Z,98278.34
2019-04-14T13:17:04.642Z,98287.05
2019-04-14T13:19:34.665Z,98287.66
2019-04-14T13:22:04.667Z,98286.50
2019-04-14T13:24:35.242Z,98284.63
2019-04-14T13:27:05.286Z,98279.87
2019-04-14T13:29:35.305Z,98283.00
2019-04-14T13:32:06.071Z,98286.36
2019-04-14T13:34:36.115Z,98293.10
2019-04-14T13:37:06.107Z,98289.21
2019-04-14T13:39:36.078Z,98289.89
2019-04-14T13:42:06.089Z,98283.01
2019-04-14T13:44:36.066Z,98294.55
2019-04-14T13:47:06.145Z,98291.68
2019-04-14T13:49:36.171Z,98291.65
2019-04-14T13:52:06.356Z,98289.84
2019-04-14T13:54:36.317Z,98301.24
2019-04-14T13:57:06.473Z,98298.17
2019-04-14T13:59:36.446Z,98292.74
2019-04-14T14:02:06.584Z,98291.55
2019-04-14T14:04:36.693Z,98286.89
2019-04-14T14:07:07.426Z,98287.30
2019-04-14T14:09:37.380Z,98284.48
2019-04-14T14:12:17.793Z,98281.75
2019-04-14T14:14:57.931Z,98278.77
2019-04-14T14:17:35.782Z,98279.84
2019-04-14T14:20:14.202Z,98278.14
2019-04-14T14:23:06.230Z,98279.42
2019-04-14T14:25:39.930Z,98277.98
2019-04-14T14:28:09.970Z,98282.13
2019-04-14T14:30:40.024Z,98285.27
2019-04-14T14:33:10.043Z,98283.50
2019-04-14T14:35:40.012Z,98282.15
2019-04-14T14:38:09.938Z,98285.17
2019-04-14T14:40:40.215Z,98295.91
2019-04-14T14:43:10.402Z,98281.97
2019-04-14T14:45:49.504Z,98283.00
2019-04-14T14:48:44.317Z,98278.62
2019-04-14T14:51:22.645Z,98278.20
2019-04-14T14:53:52.569Z,98281.76
2019-04-14T14:56:22.543Z,98287.34
2019-04-14T14:58:52.459Z,98293.68
2019-04-14T15:01:22.415Z,98292.53
2019-04-14T15:03:52.377Z,98281.45
2019-04-14T15:06:22.339Z,98295.52
2019-04-14T15:08:52.302Z,98287.92
2019-04-14T15:11:22.262Z,98287.70
2019-04-14T15:13:52.177Z,98284.66
2019-04-14T15:16:22.239Z,98284.72
2019-04-14T15:18:52.200Z,98286.50
2019-04-14T15:21:22.228Z,98294.22
2019-04-14T15:23:52.290Z,98295.91
2019-04-14T15:26:22.695Z,98299.67
2019-04-14T15:28:52.658Z,98305.77
2019-04-14T15:31:22.603Z,98309.36
2019-04-14T15:33:52.607Z,98301.94
2019-04-14T15:36:22.571Z,98314.52
2019-04-14T15:38:52.646Z,98316.21
2019-04-14T15:41:22.754Z,98323.87
2019-04-14T15:43:52.682Z,98324.94
2019-04-14T15:46:22.627Z,98318.77
2019-04-14T15:48:52.575Z,98341.50
2019-04-14T15:51:22.529Z,98331.68
2019-04-14T15:53:52.597Z,98334.06
2019-04-14T15:56:31.136Z,98340.97
2019-04-14T15:59:06.466Z,98340.81
2019-04-14T16:01:52.119Z,98343.53
2019-04-14T16:04:26.430Z,98346.82
2019-04-14T16:07:15.342Z,98343.60
2019-04-14T16:10:07.213Z,98355.58
2019-04-14T16:12:50.804Z,98353.20
2019-04-14T16:15:45.616Z,98350.30
2019-04-14T16:18:46.572Z,98352.47
2019-04-14T16:21:16.839Z,98344.19
2019-04-14T16:23:50.758Z,98353.25
2019-04-14T16:26:26.379Z,98360.45
2019-04-14T16:29:11.315Z,98365.18
2019-04-14T16:31:59.339Z,98365.72
2019-04-14T16:34:32.848Z,98373.67
2019-04-14T16:37:02.884Z,98374.04
2019-04-14T16:39:33.042Z,98367.04
2019-04-14T16:42:03.004Z,98370.81
2019-04-14T16:44:32.919Z,98383.31
2019-04-14T16:47:02.881Z,98386.20
2019-04-14T16:49:33.044Z,98383.13
2019-04-14T16:52:21.917Z,98379.92
2019-04-14T16:55:13.894Z,98382.83
2019-04-14T17:07:35.561Z,98401.75
2019-04-14T17:10:09.326Z,98408.59
2019-04-14T17:12:39.261Z,98412.42
2019-04-14T17:15:31.455Z,98414.86
2019-04-14T17:18:26.120Z,98423.95
2019-04-14T17:21:06.431Z,98427.78
2019-04-14T17:23:57.955Z,98430.95
2019-04-14T17:26:36.005Z,98431.12
2019-04-14T17:29:27.826Z,98439.03
2019-04-14T17:32:31.625Z,98442.84
2019-04-14T17:35:19.331Z,98447.42
2019-04-14T17:38:00.355Z,98451.97
2019-04-14T17:40:37.741Z,98457.19
2019-04-14T17:43:11.926Z,98457.80
2019-04-14T17:45:59.289Z,98454.91
2019-04-14T17:48:47.420Z,98470.71
2019-04-14T17:51:42.331Z,98472.55
2019-04-14T17:54:28.651Z,98474.08
2019-04-14T17:56:56.554Z,98477.84
2019-04-14T17:59:48.500Z,98488.92
2019-04-14T18:02:35.926Z,98493.59
2019-04-14T18:05:09.329Z,98497.78
2019-04-14T18:07:55.053Z,98496.67
2019-04-14T18:10:33.344Z,98501.14
2019-04-14T18:13:13.902Z,98503.66
2019-04-14T18:16:03.763Z,98507.14
2019-04-14T18:19:05.005Z,98513.75
2019-04-14T18:21:35.020Z,98518.64
2019-04-14T18:24:05.272Z,98523.41
2019-04-14T18:26:35.922Z,98526.62
2019-04-14T18:29:23.406Z,98525.61
2019-04-14T18:32:17.151Z,98534.15
2019-04-14T18:35:06.342Z,98535.73
2019-04-14T18:37:54.330Z,98544.81
2019-04-14T18:40:35.630Z,98554.75
2019-04-14T18:43:24.572Z,98551.75
2019-04-14T18:45:57.695Z,98558.48
2019-04-14T18:48:41.538Z,98559.72
2019-04-14T18:51:28.799Z,98561.56
2019-04-14T18:54:35.899Z,98562.10
2019-04-14T18:57:16.478Z,98575.77
2019-04-14T19:00:00.486Z,98580.34
2019-04-14T19:02:30.444Z,98583.78
2019-04-14T19:05:00.434Z,98585.10
2019-04-14T19:07:30.403Z,98590.06
2019-04-14T19:10:00.340Z,98591.00
2019-04-14T19:12:36.697Z,98591.53
2019-04-14T19:15:18.974Z,98601.42
2019-04-14T19:18:13.710Z,98602.50
2019-04-14T19:20:46.538Z,98607.00
2019-04-14T19:23:16.564Z,98603.88
2019-04-14T19:25:46.610Z,98610.02
2019-04-14T19:28:16.665Z,98608.54
2019-04-14T19:34:38.103Z,98608.11
2019-04-14T19:40:57.518Z,98615.28
2019-04-14T19:50:55.727Z,98615.52
2019-04-14T19:53:25.687Z,98619.24
2019-04-14T21:07:40.673Z,98664.34
2019-04-14T21:10:17.148Z,98664.12
2019-04-14T21:12:55.888Z,98675.02
2019-04-14T21:15:44.747Z,98678.42
2019-04-14T21:52:56.834Z,98709.19
2019-04-14T22:06:16.111Z,98723.61
2019-04-14T22:08:55.211Z,98728.28
2019-04-14T22:11:53.504Z,98727.52
2019-04-14T22:14:51.247Z,98725.67
2019-04-14T22:17:46.261Z,98723.62
2019-04-14T22:21:09.113Z,98722.12
2019-04-14T22:24:00.302Z,98727.75
2019-04-14T22:26:27.626Z,98735.95
2019-04-14T22:28:58.679Z,98733.56
2019-04-14T22:31:28.895Z,98731.60
2019-04-14T22:34:21.630Z,98730.81
2019-04-14T22:37:10.927Z,98735.12
2019-04-14T22:39:56.745Z,98728.52
2019-04-14T22:42:30.509Z,98726.57
2019-04-14T22:45:00.653Z,98723.94
2019-04-14T22:47:31.313Z,98724.52
2019-04-14T22:50:01.489Z,98728.91
2019-04-14T22:52:50.865Z,98721.13
2019-04-14T22:55:30.910Z,98727.41
2019-04-14T22:58:12.006Z,98732.09
2019-04-14T23:04:08.742Z,98727.85
2019-04-14T23:07:00.054Z,98726.92
2019-04-14T23:27:18.401Z,98726.69
2019-04-14T23:30:07.892Z,98722.16
2019-04-14T23:32:57.221Z,98725.03
2019-04-14T23:35:27.711Z,98722.65
2019-04-14T23:38:18.665Z,98724.14
2019-04-14T23:44:08.801Z,98721.39
